createdAt,value
2017-09-24T00:00:55.560Z,16.51
2017-09-24T00:06:02.086Z,16.60
2017-09-24T00:11:07.745Z,16.64
2017-09-24T00:16:12.224Z,16.61
2017-09-24T00:21:18.829Z,16.58
2017-09-24T00:26:25.350Z,16.75
2017-09-24T00:31:30.756Z,16.82
2017-09-24T00:36:37.392Z,16.77
2017-09-24T00:41:42.873Z,16.72
2017-09-24T00:46:49.996Z,16.57
2017-09-24T00:51:56.260Z,16.67
2017-09-24T00:57:02.809Z,16.66
2017-09-24T01:02:05.654Z,16.73
2017-09-24T01:07:11.967Z,16.82
2017-09-24T01:12:17.609Z,16.79
2017-09-24T01:17:22.988Z,16.72
2017-09-24T01:22:28.472Z,16.49
2017-09-24T01:27:31.342Z,16.57
2017-09-24T01:32:33.737Z,16.55
2017-09-24T01:37:36.416Z,16.55
2017-09-24T01:42:40.115Z,16.53
2017-09-24T01:47:42.736Z,16.48
2017-09-24T01:52:48.997Z,16.50
2017-09-24T01:57:54.585Z,16.58
2017-09-24T02:02:59.170Z,16.68
2017-09-24T02:08:05.068Z,16.64
2017-09-24T02:13:11.080Z,16.60
2017-09-24T02:18:17.544Z,16.58
2017-09-24T02:23:20.364Z,16.55
2017-09-24T02:28:25.432Z,16.44
2017-09-24T02:33:30.597Z,16.56
2017-09-24T02:38:38.608Z,16.59
2017-09-24T02:43:42.034Z,16.60
2017-09-24T02:48:51.651Z,16.58
2017-09-24T02:53:55.367Z,16.56
2017-09-24T02:58:57.999Z,16.57
2017-09-24T03:04:00.551Z,16.55
2017-09-24T03:09:07.551Z,16.66
2017-09-24T03:14:11.888Z,16.71
2017-09-24T03:19:17.548Z,16.74
2017-09-24T03:24:21.197Z,16.74
2017-09-24T03:29:26.481Z,16.77
2017-09-24T03:34:31.979Z,16.77
2017-09-24T03:39:38.687Z,16.57
2017-09-24T03:44:44.621Z,16.40
2017-09-24T03:49:48.341Z,16.27
2017-09-24T03:54:51.802Z,16.15
2017-09-24T03:59:55.118Z,16.20
2017-09-24T04:04:57.579Z,16.04
2017-09-24T04:10:03.755Z,16.02
2017-09-24T04:15:21.811Z,16.06
2017-09-24T04:20:25.651Z,16.14
2017-09-24T04:25:28.280Z,16.15
2017-09-24T04:30:30.953Z,16.16
2017-09-24T04:35:33.611Z,16.27
2017-09-24T04:40:36.083Z,16.19
2017-09-24T04:45:39.235Z,16.23
2017-09-24T04:50:41.733Z,16.27
2017-09-24T04:55:47.784Z,16.35
2017-09-24T05:00:50.880Z,16.52
2017-09-24T05:05:53.557Z,16.62
2017-09-24T05:10:56.047Z,16.65
2017-09-24T05:15:59.021Z,16.50
2017-09-24T05:21:01.691Z,16.44
2017-09-24T05:26:04.040Z,16.21
2017-09-24T05:31:08.586Z,16.18
2017-09-24T05:36:11.089Z,16.02
2017-09-24T05:41:16.356Z,16.12
2017-09-24T05:46:19.311Z,16.14
2017-09-24T05:51:22.141Z,16.05
2017-09-24T05:56:25.034Z,16.39
2017-09-24T06:01:27.168Z,16.41
2017-09-24T06:06:32.571Z,16.53
2017-09-24T06:11:36.543Z,16.70
2017-09-24T06:16:42.700Z,16.88
2017-09-24T06:21:46.173Z,16.90
2017-09-24T06:26:49.688Z,16.79
2017-09-24T06:31:55.395Z,17.11
2017-09-24T06:36:57.771Z,17.27
2017-09-24T06:42:00.524Z,17.52
2017-09-24T06:47:04.843Z,17.69
2017-09-24T06:52:08.030Z,17.77
2017-09-24T06:57:12.743Z,17.81
2017-09-24T07:02:15.036Z,17.52
2017-09-24T07:07:17.648Z,17.52
2017-09-24T07:12:20.373Z,17.83
2017-09-24T07:17:23.696Z,17.89
2017-09-24T07:22:29.029Z,17.97
2017-09-24T07:27:31.852Z,17.86
2017-09-24T07:32:37.489Z,17.93
2017-09-24T07:37:41.072Z,17.93
2017-09-24T07:42:44.214Z,18.09
2017-09-24T07:47:46.374Z,18.18
2017-09-24T07:52:51.468Z,18.25
2017-09-24T07:57:53.450Z,17.97
2017-09-24T08:02:57.043Z,18.22
2017-09-24T08:07:59.111Z,18.50
2017-09-24T08:13:01.807Z,18.57
2017-09-24T08:18:03.760Z,18.81
2017-09-24T08:23:05.702Z,19.35
2017-09-24T08:28:07.621Z,19.76
2017-09-24T08:33:10.289Z,19.55
2017-09-24T08:38:12.273Z,19.69
2017-09-24T08:43:14.230Z,19.88
2017-09-24T08:48:16.229Z,19.91
2017-09-24T08:53:18.892Z,20.13
2017-09-24T08:58:23.020Z,20.47
2017-09-24T09:03:25.023Z,20.58
2017-09-24T09:08:27.693Z,20.26
2017-09-24T09:13:29.665Z,20.27
2017-09-24T09:18:31.597Z,20.55
2017-09-24T09:23:34.242Z,20.53
2017-09-24T09:28:36.146Z,20.61
2017-09-24T09:33:38.182Z,20.59
2017-09-24T09:38:40.124Z,20.23
2017-09-24T09:43:45.974Z,20.35
2017-09-24T09:48:47.873Z,20.26
2017-09-24T09:53:51.433Z,20.09
2017-09-24T09:58:53.420Z,20.30
2017-09-24T10:03:56.087Z,19.95
2017-09-24T10:09:16.172Z,19.51
2017-09-24T10:14:18.158Z,19.08
2017-09-24T10:19:20.070Z,19.31
2017-09-24T10:24:22.074Z,19.30
2017-09-24T10:29:28.824Z,19.24
2017-09-24T10:34:30.766Z,19.29
2017-09-24T10:39:32.744Z,19.64
2017-09-24T10:44:34.705Z,19.49
2017-09-24T10:49:36.647Z,19.54
2017-09-24T10:54:38.662Z,19.46
2017-09-24T10:59:41.150Z,19.07
2017-09-24T11:04:43.087Z,18.75
2017-09-24T11:09:45.712Z,18.54
2017-09-24T11:14:47.701Z,18.48
2017-09-24T11:19:50.396Z,18.62
2017-09-24T11:24:52.358Z,18.73
2017-09-24T11:29:54.311Z,18.37
2017-09-24T11:34:56.251Z,18.54
2017-09-24T11:39:58.187Z,18.55
2017-09-24T11:45:00.162Z,18.58
2017-09-24T11:50:02.168Z,18.82
2017-09-24T11:55:04.117Z,18.90
2017-09-24T12:00:06.091Z,18.85
2017-09-24T12:05:08.039Z,18.76
2017-09-24T12:10:09.973Z,18.77
2017-09-24T12:15:11.955Z,18.44
2017-09-24T12:20:13.875Z,18.30
2017-09-24T12:25:15.790Z,18.24
2017-09-24T12:30:17.692Z,18.19
2017-09-24T12:35:19.606Z,17.99
2017-09-24T12:40:21.578Z,18.09
2017-09-24T12:45:23.529Z,18.20
2017-09-24T12:50:25.446Z,18.42
2017-09-24T12:55:27.365Z,18.45
2017-09-24T13:00:29.323Z,18.51
2017-09-24T13:05:31.299Z,18.50
2017-09-24T13:10:33.272Z,18.64
2017-09-24T13:15:35.207Z,18.65
2017-09-24T13:20:37.140Z,18.55
2017-09-24T13:25:39.059Z,18.55
2017-09-24T13:30:40.999Z,18.47
2017-09-24T13:35:43.626Z,18.52
2017-09-24T13:40:45.741Z,18.57
2017-09-24T13:45:47.648Z,18.60
2017-09-24T13:50:50.317Z,18.47
2017-09-24T13:55:52.335Z,18.51
2017-09-24T14:00:54.305Z,18.62
2017-09-24T14:05:57.014Z,18.69
2017-09-24T14:10:58.986Z,18.69
2017-09-24T14:16:00.963Z,18.56
2017-09-24T14:21:02.955Z,18.60
2017-09-24T14:26:04.951Z,18.51
2017-09-24T14:31:07.047Z,18.57
2017-09-24T14:36:09.000Z,18.70
2017-09-24T14:41:10.949Z,18.85
2017-09-24T14:46:12.880Z,18.76
2017-09-24T14:51:14.934Z,18.71
2017-09-24T14:56:16.858Z,18.70
2017-09-24T15:01:19.515Z,18.84
2017-09-24T15:06:21.483Z,18.80
2017-09-24T15:11:23.411Z,18.86
2017-09-24T15:16:26.167Z,18.89
2017-09-24T15:21:28.359Z,18.86
2017-09-24T15:26:35.326Z,18.84
2017-09-24T15:31:37.845Z,18.91
2017-09-24T15:36:41.021Z,18.90
2017-09-24T15:41:44.503Z,18.96
2017-09-24T15:46:46.465Z,18.93
2017-09-24T15:51:49.126Z,18.93
2017-09-24T15:56:51.861Z,19.02
2017-09-24T16:01:53.815Z,18.97
2017-09-24T16:06:55.757Z,18.78
2017-09-24T16:11:57.815Z,18.72
2017-09-24T16:16:59.826Z,18.58
2017-09-24T16:22:01.824Z,18.66
2017-09-24T16:27:04.586Z,18.63
2017-09-24T16:32:07.297Z,18.62
2017-09-24T16:37:09.244Z,18.81
2017-09-24T16:42:11.244Z,18.82
2017-09-24T16:47:13.368Z,18.72
2017-09-24T16:52:18.513Z,18.73
2017-09-24T16:57:20.718Z,18.64
2017-09-24T17:02:22.719Z,18.69
2017-09-24T17:07:24.683Z,18.58
2017-09-24T17:12:27.366Z,18.68
2017-09-24T17:17:29.343Z,18.77
2017-09-24T17:22:31.297Z,18.75
2017-09-24T17:27:35.805Z,18.72
2017-09-24T17:32:37.778Z,18.76
2017-09-24T17:37:41.091Z,18.68
2017-09-24T17:42:43.079Z,18.76
2017-09-24T17:47:45.058Z,18.82
2017-09-24T17:52:46.983Z,18.74
2017-09-24T17:57:48.914Z,18.72
2017-09-24T18:02:50.923Z,18.72
2017-09-24T18:07:52.860Z,18.73
2017-09-24T18:12:55.592Z,18.74
2017-09-24T18:17:57.874Z,18.81
2017-09-24T18:23:00.434Z,18.69
2017-09-24T18:28:02.407Z,18.79
2017-09-24T18:33:05.122Z,18.75
2017-09-24T18:38:07.191Z,18.72
2017-09-24T18:43:09.847Z,18.70
2017-09-24T18:48:12.735Z,18.75
2017-09-24T18:53:14.714Z,18.78
2017-09-24T18:58:16.669Z,18.77
2017-09-24T19:03:19.462Z,18.71
2017-09-24T19:08:21.396Z,18.72
2017-09-24T19:13:23.672Z,18.63
2017-09-24T19:18:26.677Z,18.62
2017-09-24T19:23:28.684Z,18.62
2017-09-24T19:28:30.710Z,18.60
2017-09-24T19:33:32.656Z,18.56
2017-09-24T19:38:34.597Z,18.53
2017-09-24T19:43:36.555Z,18.50
2017-09-24T19:48:38.487Z,18.41
2017-09-24T19:53:40.560Z,18.30
2017-09-24T19:58:42.549Z,18.41
2017-09-24T20:03:44.472Z,18.26
2017-09-24T20:08:46.381Z,18.35
2017-09-24T20:13:48.300Z,18.39
2017-09-24T20:18:51.086Z,18.20
2017-09-24T20:24:00.079Z,18.36
2017-09-24T20:29:02.755Z,18.36
2017-09-24T20:34:04.723Z,18.38
2017-09-24T20:39:06.656Z,18.29
2017-09-24T20:44:08.586Z,18.34
2017-09-24T20:49:10.552Z,18.34
2017-09-24T20:54:12.591Z,18.27
2017-09-24T20:59:14.543Z,18.23
2017-09-24T21:04:16.496Z,18.30
2017-09-24T21:09:19.416Z,18.09
2017-09-24T21:14:21.402Z,18.13
2017-09-24T21:19:24.409Z,18.08
2017-09-24T21:24:26.380Z,18.10
2017-09-24T21:29:28.396Z,18.00
2017-09-24T21:34:30.424Z,18.05
2017-09-24T21:39:32.394Z,17.96
2017-09-24T21:44:34.418Z,18.06
2017-09-24T21:49:37.159Z,18.07
2017-09-24T21:54:40.801Z,18.17
2017-09-24T21:59:42.741Z,18.23
2017-09-24T22:04:44.696Z,18.27
2017-09-24T22:09:46.682Z,18.22
2017-09-24T22:14:49.447Z,18.10
2017-09-24T22:19:51.449Z,18.10
2017-09-24T22:24:53.433Z,18.14
2017-09-24T22:29:55.355Z,18.25
2017-09-24T22:34:57.536Z,18.28
2017-09-24T22:40:00.122Z,18.35
2017-09-24T22:45:03.426Z,18.39
2017-09-24T22:50:05.508Z,18.36
2017-09-24T22:55:08.125Z,18.30
2017-09-24T23:00:10.827Z,18.20
2017-09-24T23:05:13.374Z,18.20
2017-09-24T23:10:15.974Z,18.27
2017-09-24T23:15:18.624Z,18.24
2017-09-24T23:20:20.571Z,18.04
2017-09-24T23:25:23.203Z,18.03
2017-09-24T23:30:25.769Z,18.04
2017-09-24T23:35:28.433Z,18.10
2017-09-24T23:40:30.675Z,17.95
2017-09-24T23:45:34.236Z,17.94
2017-09-24T23:50:37.666Z,17.96
2017-09-24T23:55:40.217Z,17.82
